sensor_id;sensor_type;location;lat;lon;timestamp;pressure;altitude;pressure_sealevel;temperature
29701;BMP280;57917;51.380;-0.176;2022-07-09T00:03:00;102718.97;;;21.55
29701;BMP280;57917;51.380;-0.176;2022-07-09T00:08:47;102725.28;;;21.37
29701;BMP280;57917;51.380;-0.176;2022-07-09T00:14:34;102737.25;;;21.45
29701;BMP280;57917;51.380;-0.176;2022-07-09T00:20:21;102744.25;;;21.81
29701;BMP280;57917;51.380;-0.176;2022-07-09T00:26:08;102729.53;;;21.87
29701;BMP280;57917;51.380;-0.176;2022-07-09T00:31:55;102746.47;;;21.30
29701;BMP280;57917;51.380;-0.176;2022-07-09T00:37:42;102746.28;;;20.86
29701;BMP280;57917;51.380;-0.176;2022-07-09T00:43:31;102752.03;;;20.66
29701;BMP280;57917;51.380;-0.176;2022-07-09T00:49:18;102754.63;;;20.58
29701;BMP280;57917;51.380;-0.176;2022-07-09T00:55:06;102763.41;;;20.63
29701;BMP280;57917;51.380;-0.176;2022-07-09T01:00:54;102770.88;;;20.66
29701;BMP280;57917;51.380;-0.176;2022-07-09T01:06:41;102764.31;;;20.72
29701;BMP280;57917;51.380;-0.176;2022-07-09T01:12:28;102759.53;;;20.37
29701;BMP280;57917;51.380;-0.176;2022-07-09T01:18:16;102770.16;;;20.10
29701;BMP280;57917;51.380;-0.176;2022-07-09T01:24:03;102756.38;;;19.98
29701;BMP280;57917;51.380;-0.176;2022-07-09T01:29:50;102757.38;;;19.65
29701;BMP280;57917;51.380;-0.176;2022-07-09T01:35:37;102763.78;;;19.69
29701;BMP280;57917;51.380;-0.176;2022-07-09T01:41:24;102769.31;;;19.78
29701;BMP280;57917;51.380;-0.176;2022-07-09T01:47:11;102757.16;;;19.62
29701;BMP280;57917;51.380;-0.176;2022-07-09T01:53:01;102761.59;;;19.90
29701;BMP280;57917;51.380;-0.176;2022-07-09T01:58:48;102772.59;;;19.51
29701;BMP280;57917;51.380;-0.176;2022-07-09T02:04:35;102764.28;;;19.29
29701;BMP280;57917;51.380;-0.176;2022-07-09T02:10:22;102767.41;;;19.36
29701;BMP280;57917;51.380;-0.176;2022-07-09T02:16:10;102776.50;;;19.17
29701;BMP280;57917;51.380;-0.176;2022-07-09T02:21:57;102773.72;;;19.27
29701;BMP280;57917;51.380;-0.176;2022-07-09T02:27:44;102773.28;;;19.38
29701;BMP280;57917;51.380;-0.176;2022-07-09T02:33:31;102773.41;;;19.05
29701;BMP280;57917;51.380;-0.176;2022-07-09T02:39:20;102762.91;;;19.08
29701;BMP280;57917;51.380;-0.176;2022-07-09T02:45:07;102772.69;;;19.23
29701;BMP280;57917;51.380;-0.176;2022-07-09T02:50:56;102767.59;;;18.98
29701;BMP280;57917;51.380;-0.176;2022-07-09T02:56:48;102769.25;;;18.94
29701;BMP280;57917;51.380;-0.176;2022-07-09T03:02:37;102766.66;;;19.07
29701;BMP280;57917;51.380;-0.176;2022-07-09T03:08:26;102776.38;;;19.03
29701;BMP280;57917;51.380;-0.176;2022-07-09T03:14:13;102776.91;;;18.77
29701;BMP280;57917;51.380;-0.176;2022-07-09T03:20:00;102775.56;;;18.79
29701;BMP280;57917;51.380;-0.176;2022-07-09T03:25:47;102775.34;;;18.99
29701;BMP280;57917;51.380;-0.176;2022-07-09T03:31:34;102770.72;;;19.05
29701;BMP280;57917;51.380;-0.176;2022-07-09T03:37:22;102777.78;;;19.24
29701;BMP280;57917;51.380;-0.176;2022-07-09T03:43:08;102772.78;;;19.36
29701;BMP280;57917;51.380;-0.176;2022-07-09T03:48:55;102783.19;;;18.91
29701;BMP280;57917;51.380;-0.176;2022-07-09T03:54:43;102780.03;;;18.55
29701;BMP280;57917;51.380;-0.176;2022-07-09T04:00:30;102796.06;;;18.21
29701;BMP280;57917;51.380;-0.176;2022-07-09T04:06:17;102796.44;;;18.10
29701;BMP280;57917;51.380;-0.176;2022-07-09T04:12:04;102799.59;;;18.17
29701;BMP280;57917;51.380;-0.176;2022-07-09T04:17:51;102797.59;;;17.89
29701;BMP280;57917;51.380;-0.176;2022-07-09T04:23:38;102791.78;;;17.72
29701;BMP280;57917;51.380;-0.176;2022-07-09T04:29:25;102788.03;;;18.21
29701;BMP280;57917;51.380;-0.176;2022-07-09T04:35:11;102776.59;;;18.44
29701;BMP280;57917;51.380;-0.176;2022-07-09T04:40:58;102782.09;;;18.63
29701;BMP280;57917;51.380;-0.176;2022-07-09T04:46:45;102784.72;;;19.25
29701;BMP280;57917;51.380;-0.176;2022-07-09T04:52:32;102765.44;;;20.98
29701;BMP280;57917;51.380;-0.176;2022-07-09T04:58:19;102766.19;;;22.55
29701;BMP280;57917;51.380;-0.176;2022-07-09T05:04:06;102756.25;;;23.37
29701;BMP280;57917;51.380;-0.176;2022-07-09T05:09:53;102753.75;;;24.75
29701;BMP280;57917;51.380;-0.176;2022-07-09T05:15:43;102751.63;;;25.83
29701;BMP280;57917;51.380;-0.176;2022-07-09T05:21:29;102748.88;;;26.63
29701;BMP280;57917;51.380;-0.176;2022-07-09T05:27:19;102764.84;;;26.77
29701;BMP280;57917;51.380;-0.176;2022-07-09T05:33:06;102760.31;;;26.21
29701;BMP280;57917;51.380;-0.176;2022-07-09T05:38:53;102762.91;;;24.53
29701;BMP280;57917;51.380;-0.176;2022-07-09T05:44:40;102769.69;;;22.64
29701;BMP280;57917;51.380;-0.176;2022-07-09T05:50:27;102782.41;;;21.26
29701;BMP280;57917;51.380;-0.176;2022-07-09T05:56:14;102784.75;;;20.73
29701;BMP280;57917;51.380;-0.176;2022-07-09T06:02:01;102801.66;;;20.60
29701;BMP280;57917;51.380;-0.176;2022-07-09T06:07:49;102803.25;;;19.92
29701;BMP280;57917;51.380;-0.176;2022-07-09T06:13:37;102802.09;;;20.35
29701;BMP280;57917;51.380;-0.176;2022-07-09T06:19:24;102797.00;;;20.34
29701;BMP280;57917;51.380;-0.176;2022-07-09T06:25:11;102796.56;;;20.91
29701;BMP280;57917;51.380;-0.176;2022-07-09T06:30:59;102795.66;;;20.31
29701;BMP280;57917;51.380;-0.176;2022-07-09T06:36:46;102799.47;;;20.30
29701;BMP280;57917;51.380;-0.176;2022-07-09T06:42:33;102800.97;;;20.36
29701;BMP280;57917;51.380;-0.176;2022-07-09T06:48:36;102802.03;;;20.22
29701;BMP280;57917;51.380;-0.176;2022-07-09T06:54:24;102801.94;;;20.27
29701;BMP280;57917;51.380;-0.176;2022-07-09T07:00:12;102806.78;;;20.06
29701;BMP280;57917;51.380;-0.176;2022-07-09T07:06:01;102804.34;;;20.28
29701;BMP280;57917;51.380;-0.176;2022-07-09T07:11:49;102803.09;;;20.71
29701;BMP280;57917;51.380;-0.176;2022-07-09T07:17:42;102810.88;;;20.41
29701;BMP280;57917;51.380;-0.176;2022-07-09T07:23:50;102813.34;;;20.56
29701;BMP280;57917;51.380;-0.176;2022-07-09T07:29:37;102810.59;;;20.24
29701;BMP280;57917;51.380;-0.176;2022-07-09T07:35:30;102803.84;;;20.08
29701;BMP280;57917;51.380;-0.176;2022-07-09T07:41:20;102818.84;;;20.14
29701;BMP280;57917;51.380;-0.176;2022-07-09T07:47:07;102819.66;;;20.14
29701;BMP280;57917;51.380;-0.176;2022-07-09T07:52:56;102822.06;;;20.29
29701;BMP280;57917;51.380;-0.176;2022-07-09T07:58:58;102816.13;;;20.32
29701;BMP280;57917;51.380;-0.176;2022-07-09T08:04:51;102818.59;;;20.47
29701;BMP280;57917;51.380;-0.176;2022-07-09T08:10:43;102813.47;;;20.78
29701;BMP280;57917;51.380;-0.176;2022-07-09T08:16:33;102807.94;;;20.88
29701;BMP280;57917;51.380;-0.176;2022-07-09T08:22:28;102807.91;;;20.74
29701;BMP280;57917;51.380;-0.176;2022-07-09T08:28:24;102802.72;;;20.91
29701;BMP280;57917;51.380;-0.176;2022-07-09T08:34:12;102797.16;;;21.28
29701;BMP280;57917;51.380;-0.176;2022-07-09T08:40:00;102807.72;;;21.25
29701;BMP280;57917;51.380;-0.176;2022-07-09T08:45:48;102801.97;;;21.04
29701;BMP280;57917;51.380;-0.176;2022-07-09T08:51:40;102790.19;;;20.68
29701;BMP280;57917;51.380;-0.176;2022-07-09T08:57:30;102795.75;;;20.90
29701;BMP280;57917;51.380;-0.176;2022-07-09T09:03:18;102797.44;;;20.86
29701;BMP280;57917;51.380;-0.176;2022-07-09T09:09:09;102786.91;;;21.30
29701;BMP280;57917;51.380;-0.176;2022-07-09T09:14:57;102788.81;;;21.79
29701;BMP280;57917;51.380;-0.176;2022-07-09T09:20:45;102775.06;;;22.02
29701;BMP280;57917;51.380;-0.176;2022-07-09T09:26:36;102785.69;;;21.36
29701;BMP280;57917;51.380;-0.176;2022-07-09T09:32:28;102798.06;;;21.51
29701;BMP280;57917;51.380;-0.176;2022-07-09T09:38:24;102792.53;;;22.05
29701;BMP280;57917;51.380;-0.176;2022-07-09T09:44:27;102775.94;;;22.73
29701;BMP280;57917;51.380;-0.176;2022-07-09T09:50:29;102781.41;;;22.51
29701;BMP280;57917;51.380;-0.176;2022-07-09T09:56:28;102778.81;;;22.76
29701;BMP280;57917;51.380;-0.176;2022-07-09T10:02:23;102789.34;;;22.25
29701;BMP280;57917;51.380;-0.176;2022-07-09T10:08:18;102784.63;;;22.92
29701;BMP280;57917;51.380;-0.176;2022-07-09T10:14:06;102787.13;;;22.97
29701;BMP280;57917;51.380;-0.176;2022-07-09T10:20:01;102772.81;;;23.35
29701;BMP280;57917;51.380;-0.176;2022-07-09T10:26:08;102775.59;;;24.24
29701;BMP280;57917;51.380;-0.176;2022-07-09T10:31:58;102766.13;;;24.84
29701;BMP280;57917;51.380;-0.176;2022-07-09T10:37:55;102777.44;;;23.60
29701;BMP280;57917;51.380;-0.176;2022-07-09T10:43:50;102754.34;;;24.80
29701;BMP280;57917;51.380;-0.176;2022-07-09T10:49:46;102756.97;;;25.18
29701;BMP280;57917;51.380;-0.176;2022-07-09T10:55:42;102742.91;;;25.77
29701;BMP280;57917;51.380;-0.176;2022-07-09T11:01:46;102744.47;;;26.23
29701;BMP280;57917;51.380;-0.176;2022-07-09T11:08:05;102739.25;;;26.78
29701;BMP280;57917;51.380;-0.176;2022-07-09T11:13:53;102731.66;;;26.83
29701;BMP280;57917;51.380;-0.176;2022-07-09T11:19:43;102740.84;;;26.55
29701;BMP280;57917;51.380;-0.176;2022-07-09T11:25:32;102730.63;;;26.64
29701;BMP280;57917;51.380;-0.176;2022-07-09T11:31:21;102738.88;;;27.31
29701;BMP280;57917;51.380;-0.176;2022-07-09T11:37:12;102725.63;;;27.88
29701;BMP280;57917;51.380;-0.176;2022-07-09T11:43:02;102718.31;;;27.61
29701;BMP280;57917;51.380;-0.176;2022-07-09T11:48:52;102713.69;;;27.06
29701;BMP280;57917;51.380;-0.176;2022-07-09T11:54:40;102708.78;;;27.12
29701;BMP280;57917;51.380;-0.176;2022-07-09T12:00:34;102713.34;;;26.56
29701;BMP280;57917;51.380;-0.176;2022-07-09T12:06:49;102703.47;;;26.76
29701;BMP280;57917;51.380;-0.176;2022-07-09T12:12:48;102705.47;;;26.79
29701;BMP280;57917;51.380;-0.176;2022-07-09T12:18:39;102704.97;;;26.25
29701;BMP280;57917;51.380;-0.176;2022-07-09T12:24:27;102699.34;;;26.82
29701;BMP280;57917;51.380;-0.176;2022-07-09T12:30:15;102693.19;;;27.09
29701;BMP280;57917;51.380;-0.176;2022-07-09T12:36:07;102685.03;;;26.69
29701;BMP280;57917;51.380;-0.176;2022-07-09T12:42:40;102679.31;;;26.74
29701;BMP280;57917;51.380;-0.176;2022-07-09T12:48:39;102672.28;;;26.34
29701;BMP280;57917;51.380;-0.176;2022-07-09T12:54:26;102666.94;;;27.44
29701;BMP280;57917;51.380;-0.176;2022-07-09T13:00:13;102665.31;;;27.27
29701;BMP280;57917;51.380;-0.176;2022-07-09T13:06:03;102667.97;;;26.33
29701;BMP280;57917;51.380;-0.176;2022-07-09T13:11:55;102657.19;;;26.12
29701;BMP280;57917;51.380;-0.176;2022-07-09T13:17:48;102639.47;;;25.91
29701;BMP280;57917;51.380;-0.176;2022-07-09T13:23:35;102646.22;;;25.73
29701;BMP280;57917;51.380;-0.176;2022-07-09T13:29:32;102639.41;;;26.39
29701;BMP280;57917;51.380;-0.176;2022-07-09T13:35:29;102642.22;;;26.54
29701;BMP280;57917;51.380;-0.176;2022-07-09T13:41:21;102639.22;;;26.08
29701;BMP280;57917;51.380;-0.176;2022-07-09T13:47:09;102635.81;;;26.23
29701;BMP280;57917;51.380;-0.176;2022-07-09T13:53:03;102634.75;;;26.12
29701;BMP280;57917;51.380;-0.176;2022-07-09T13:58:50;102632.66;;;26.45
29701;BMP280;57917;51.380;-0.176;2022-07-09T14:04:39;102617.06;;;26.18
29701;BMP280;57917;51.380;-0.176;2022-07-09T14:10:29;102611.84;;;26.13
29701;BMP280;57917;51.380;-0.176;2022-07-09T14:16:17;102612.72;;;26.41
29701;BMP280;57917;51.380;-0.176;2022-07-09T14:22:05;102622.03;;;26.28
29701;BMP280;57917;51.380;-0.176;2022-07-09T14:27:52;102607.44;;;26.60
29701;BMP280;57917;51.380;-0.176;2022-07-09T14:33:45;102604.47;;;27.20
29701;BMP280;57917;51.380;-0.176;2022-07-09T14:39:36;102596.22;;;26.73
29701;BMP280;57917;51.380;-0.176;2022-07-09T14:45:31;102592.59;;;26.30
29701;BMP280;57917;51.380;-0.176;2022-07-09T14:51:19;102584.63;;;26.76
29701;BMP280;57917;51.380;-0.176;2022-07-09T14:57:08;102590.28;;;27.11
29701;BMP280;57917;51.380;-0.176;2022-07-09T15:03:06;102565.28;;;26.78
29701;BMP280;57917;51.380;-0.176;2022-07-09T15:09:00;102568.78;;;26.39
29701;BMP280;57917;51.380;-0.176;2022-07-09T15:14:50;102566.69;;;26.72
29701;BMP280;57917;51.380;-0.176;2022-07-09T15:20:38;102571.41;;;26.75
29701;BMP280;57917;51.380;-0.176;2022-07-09T15:26:25;102562.91;;;26.49
29701;BMP280;57917;51.380;-0.176;2022-07-09T15:32:12;102559.75;;;26.47
29701;BMP280;57917;51.380;-0.176;2022-07-09T15:38:02;102566.69;;;26.20
29701;BMP280;57917;51.380;-0.176;2022-07-09T15:43:52;102551.38;;;26.40
29701;BMP280;57917;51.380;-0.176;2022-07-09T15:49:44;102535.97;;;26.44
29701;BMP280;57917;51.380;-0.176;2022-07-09T15:55:36;102526.25;;;26.43
29701;BMP280;57917;51.380;-0.176;2022-07-09T16:01:26;102527.63;;;26.37
29701;BMP280;57917;51.380;-0.176;2022-07-09T16:07:15;102527.13;;;26.74
29701;BMP280;57917;51.380;-0.176;2022-07-09T16:13:04;102531.56;;;26.67
29701;BMP280;57917;51.380;-0.176;2022-07-09T16:19:07;102514.41;;;26.63
29701;BMP280;57917;51.380;-0.176;2022-07-09T16:24:58;102517.03;;;26.59
29701;BMP280;57917;51.380;-0.176;2022-07-09T16:30:47;102506.81;;;26.84
29701;BMP280;57917;51.380;-0.176;2022-07-09T16:36:34;102505.94;;;26.95
29701;BMP280;57917;51.380;-0.176;2022-07-09T16:42:35;102504.09;;;26.84
29701;BMP280;57917;51.380;-0.176;2022-07-09T16:48:31;102491.88;;;26.62
29701;BMP280;57917;51.380;-0.176;2022-07-09T16:54:21;102482.41;;;26.56
29701;BMP280;57917;51.380;-0.176;2022-07-09T17:00:24;102482.88;;;26.74
29701;BMP280;57917;51.380;-0.176;2022-07-09T17:06:44;102494.09;;;26.45
29701;BMP280;57917;51.380;-0.176;2022-07-09T17:12:56;102487.97;;;26.48
29701;BMP280;57917;51.380;-0.176;2022-07-09T17:18:44;102486.31;;;26.31
29701;BMP280;57917;51.380;-0.176;2022-07-09T17:24:49;102482.94;;;26.34
29701;BMP280;57917;51.380;-0.176;2022-07-09T17:30:44;102478.63;;;26.33
29701;BMP280;57917;51.380;-0.176;2022-07-09T17:36:44;102479.44;;;26.34
29701;BMP280;57917;51.380;-0.176;2022-07-09T17:42:32;102479.81;;;26.48
29701;BMP280;57917;51.380;-0.176;2022-07-09T17:48:19;102480.41;;;26.14
29701;BMP280;57917;51.380;-0.176;2022-07-09T17:54:26;102477.47;;;26.07
29701;BMP280;57917;51.380;-0.176;2022-07-09T18:00:44;102482.06;;;26.18
29701;BMP280;57917;51.380;-0.176;2022-07-09T18:06:35;102463.34;;;26.29
29701;BMP280;57917;51.380;-0.176;2022-07-09T18:12:23;102464.13;;;26.14
29701;BMP280;57917;51.380;-0.176;2022-07-09T18:18:15;102473.53;;;26.32
29701;BMP280;57917;51.380;-0.176;2022-07-09T18:24:03;102476.94;;;26.01
29701;BMP280;57917;51.380;-0.176;2022-07-09T18:29:57;102475.28;;;25.85
29701;BMP280;57917;51.380;-0.176;2022-07-09T18:35:55;102472.88;;;25.71
29701;BMP280;57917;51.380;-0.176;2022-07-09T18:41:46;102466.00;;;25.74
29701;BMP280;57917;51.380;-0.176;2022-07-09T18:47:34;102468.22;;;25.84
29701;BMP280;57917;51.380;-0.176;2022-07-09T18:53:21;102497.31;;;25.47
29701;BMP280;57917;51.380;-0.176;2022-07-09T18:59:14;102505.66;;;25.18
29701;BMP280;57917;51.380;-0.176;2022-07-09T19:05:05;102503.16;;;24.81
29701;BMP280;57917;51.380;-0.176;2022-07-09T19:10:58;102515.06;;;24.68
29701;BMP280;57917;51.380;-0.176;2022-07-09T19:16:47;102529.72;;;24.46
29701;BMP280;57917;51.380;-0.176;2022-07-09T19:22:35;102526.44;;;24.41
29701;BMP280;57917;51.380;-0.176;2022-07-09T19:28:53;102534.31;;;24.25
29701;BMP280;57917;51.380;-0.176;2022-07-09T19:34:47;102540.38;;;24.02
29701;BMP280;57917;51.380;-0.176;2022-07-09T19:40:37;102538.19;;;23.58
29701;BMP280;57917;51.380;-0.176;2022-07-09T19:46:24;102550.63;;;23.42
29701;BMP280;57917;51.380;-0.176;2022-07-09T19:52:15;102564.78;;;23.39
29701;BMP280;57917;51.380;-0.176;2022-07-09T19:58:02;102569.56;;;23.08
29701;BMP280;57917;51.380;-0.176;2022-07-09T20:03:52;102573.72;;;23.05
29701;BMP280;57917;51.380;-0.176;2022-07-09T20:09:40;102589.75;;;22.76
29701;BMP280;57917;51.380;-0.176;2022-07-09T20:15:37;102600.06;;;22.66
29701;BMP280;57917;51.380;-0.176;2022-07-09T20:21:31;102610.56;;;22.67
29701;BMP280;57917;51.380;-0.176;2022-07-09T20:27:20;102613.06;;;22.55
29701;BMP280;57917;51.380;-0.176;2022-07-09T20:33:16;102619.13;;;22.61
29701;BMP280;57917;51.380;-0.176;2022-07-09T20:39:05;102627.84;;;22.58
29701;BMP280;57917;51.380;-0.176;2022-07-09T20:45:01;102639.28;;;22.55
29701;BMP280;57917;51.380;-0.176;2022-07-09T20:51:25;102637.81;;;22.40
29701;BMP280;57917;51.380;-0.176;2022-07-09T20:57:37;102638.28;;;22.11
29701;BMP280;57917;51.380;-0.176;2022-07-09T21:03:24;102636.97;;;22.00
29701;BMP280;57917;51.380;-0.176;2022-07-09T21:09:12;102639.19;;;21.98
29701;BMP280;57917;51.380;-0.176;2022-07-09T21:15:00;102653.00;;;21.75
29701;BMP280;57917;51.380;-0.176;2022-07-09T21:20:47;102644.34;;;21.64
29701;BMP280;57917;51.380;-0.176;2022-07-09T21:27:30;102651.66;;;21.28
29701;BMP280;57917;51.380;-0.176;2022-07-09T21:34:21;102646.50;;;21.18
29701;BMP280;57917;51.380;-0.176;2022-07-09T21:40:11;102659.69;;;21.06
29701;BMP280;57917;51.380;-0.176;2022-07-09T21:46:00;102656.22;;;20.79
29701;BMP280;57917;51.380;-0.176;2022-07-09T21:58:21;102666.91;;;20.70
29701;BMP280;57917;51.380;-0.176;2022-07-09T22:04:09;102667.19;;;20.69
29701;BMP280;57917;51.380;-0.176;2022-07-09T22:09:56;102667.75;;;20.52
29701;BMP280;57917;51.380;-0.176;2022-07-09T22:15:43;102671.16;;;20.12
29701;BMP280;57917;51.380;-0.176;2022-07-09T22:21:30;102672.94;;;20.03
29701;BMP280;57917;51.380;-0.176;2022-07-09T22:27:17;102676.16;;;20.19
29701;BMP280;57917;51.380;-0.176;2022-07-09T22:33:04;102671.59;;;20.19
29701;BMP280;57917;51.380;-0.176;2022-07-09T22:38:51;102668.47;;;20.31
29701;BMP280;57917;51.380;-0.176;2022-07-09T22:44:38;102661.34;;;20.21
29701;BMP280;57917;51.380;-0.176;2022-07-09T22:50:30;102660.81;;;20.19
29701;BMP280;57917;51.380;-0.176;2022-07-09T22:56:17;102657.13;;;20.02
29701;BMP280;57917;51.380;-0.176;2022-07-09T23:02:12;102662.56;;;20.10
29701;BMP280;57917;51.380;-0.176;2022-07-09T23:08:18;102668.81;;;20.24
29701;BMP280;57917;51.380;-0.176;2022-07-09T23:14:25;102668.97;;;20.01
29701;BMP280;57917;51.380;-0.176;2022-07-09T23:20:15;102665.28;;;20.10
29701;BMP280;57917;51.380;-0.176;2022-07-09T23:26:06;102663.75;;;19.91
29701;BMP280;57917;51.380;-0.176;2022-07-09T23:31:55;102664.19;;;19.61
29701;BMP280;57917;51.380;-0.176;2022-07-09T23:37:42;102676.88;;;19.55
29701;BMP280;57917;51.380;-0.176;2022-07-09T23:43:28;102667.34;;;19.68
29701;BMP280;57917;51.380;-0.176;2022-07-09T23:49:15;102654.91;;;19.72
29701;BMP280;57917;51.380;-0.176;2022-07-09T23:55:07;102659.13;;;19.59
